sensor_id;sensor_type;location;lat;lon;timestamp;pressure;altitude;pressure_sealevel;temperature;humidity
57594;BME280;43423;46.510;6.686;2023-05-25T00:00:36;96285.69;;;12.24;76.63
57594;BME280;43423;46.510;6.686;2023-05-25T00:03:22;96300.50;;;12.26;76.71
57594;BME280;43423;46.510;6.686;2023-05-25T00:05:48;96286.44;;;12.19;75.89
57594;BME280;43423;46.510;6.686;2023-05-25T00:08:14;96289.16;;;12.13;75.93
57594;BME280;43423;46.510;6.686;2023-05-25T00:10:40;96298.66;;;12.12;75.90
57594;BME280;43423;46.510;6.686;2023-05-25T00:13:05;96302.72;;;12.17;75.60
57594;BME280;43423;46.510;6.686;2023-05-25T00:15:31;96285.38;;;12.11;75.25
57594;BME280;43423;46.510;6.686;2023-05-25T00:17:57;96292.63;;;12.08;74.79
57594;BME280;43423;46.510;6.686;2023-05-25T00:20:22;96291.09;;;12.01;74.93
57594;BME280;43423;46.510;6.686;2023-05-25T00:22:48;96287.88;;;12.09;74.39
57594;BME280;43423;46.510;6.686;2023-05-25T00:25:16;96283.78;;;11.98;74.95
57594;BME280;43423;46.510;6.686;2023-05-25T00:27:45;96287.81;;;11.97;74.37
57594;BME280;43423;46.510;6.686;2023-05-25T00:30:11;96293.31;;;11.97;74.05
57594;BME280;43423;46.510;6.686;2023-05-25T00:32:39;96283.00;;;11.92;74.17
57594;BME280;43423;46.510;6.686;2023-05-25T00:35:06;96281.78;;;11.99;74.33
57594;BME280;43423;46.510;6.686;2023-05-25T00:37:32;96273.22;;;11.91;73.90
57594;BME280;43423;46.510;6.686;2023-05-25T00:39:57;96274.03;;;11.97;74.36
57594;BME280;43423;46.510;6.686;2023-05-25T00:42:23;96267.03;;;12.02;74.15
57594;BME280;43423;46.510;6.686;2023-05-25T00:44:49;96274.28;;;11.99;73.39
57594;BME280;43423;46.510;6.686;2023-05-25T00:47:15;96263.03;;;12.03;73.44
57594;BME280;43423;46.510;6.686;2023-05-25T00:49:47;96262.28;;;12.02;73.05
57594;BME280;43423;46.510;6.686;2023-05-25T00:52:17;96262.00;;;11.95;73.43
57594;BME280;43423;46.510;6.686;2023-05-25T00:54:44;96258.97;;;11.93;74.05
57594;BME280;43423;46.510;6.686;2023-05-25T00:57:16;96268.47;;;11.92;73.80
57594;BME280;43423;46.510;6.686;2023-05-25T00:59:49;96261.03;;;12.04;73.82
57594;BME280;43423;46.510;6.686;2023-05-25T01:02:17;96258.50;;;11.94;73.19
57594;BME280;43423;46.510;6.686;2023-05-25T01:04:50;96261.94;;;11.89;73.15
57594;BME280;43423;46.510;6.686;2023-05-25T01:07:22;96270.00;;;11.93;73.83
57594;BME280;43423;46.510;6.686;2023-05-25T01:10:00;96268.66;;;11.83;73.98
57594;BME280;43423;46.510;6.686;2023-05-25T01:12:28;96269.59;;;11.74;73.99
57594;BME280;43423;46.510;6.686;2023-05-25T01:14:54;96266.78;;;11.68;74.23
57594;BME280;43423;46.510;6.686;2023-05-25T01:17:24;96261.25;;;11.63;74.57
57594;BME280;43423;46.510;6.686;2023-05-25T01:19:53;96270.59;;;11.71;74.36
57594;BME280;43423;46.510;6.686;2023-05-25T01:22:36;96268.97;;;11.59;74.97
57594;BME280;43423;46.510;6.686;2023-05-25T01:25:17;96262.72;;;11.58;75.00
57594;BME280;43423;46.510;6.686;2023-05-25T01:28:02;96270.28;;;11.63;75.48
57594;BME280;43423;46.510;6.686;2023-05-25T01:30:31;96271.22;;;11.55;75.56
57594;BME280;43423;46.510;6.686;2023-05-25T01:32:58;96278.19;;;11.50;76.06
57594;BME280;43423;46.510;6.686;2023-05-25T01:35:25;96274.22;;;11.57;76.18
57594;BME280;43423;46.510;6.686;2023-05-25T01:37:51;96269.16;;;11.50;76.51
57594;BME280;43423;46.510;6.686;2023-05-25T01:40:17;96274.22;;;11.57;76.31
57594;BME280;43423;46.510;6.686;2023-05-25T01:42:51;96282.69;;;11.53;76.74
57594;BME280;43423;46.510;6.686;2023-05-25T01:45:17;96267.72;;;11.54;76.54
57594;BME280;43423;46.510;6.686;2023-05-25T01:47:52;96275.66;;;11.46;76.72
57594;BME280;43423;46.510;6.686;2023-05-25T01:50:36;96275.16;;;11.48;77.40
57594;BME280;43423;46.510;6.686;2023-05-25T01:53:09;96281.16;;;11.46;76.67
57594;BME280;43423;46.510;6.686;2023-05-25T01:55:41;96277.88;;;11.42;77.64
57594;BME280;43423;46.510;6.686;2023-05-25T01:58:13;96290.94;;;11.48;77.37
57594;BME280;43423;46.510;6.686;2023-05-25T02:00:46;96278.41;;;11.46;77.57
57594;BME280;43423;46.510;6.686;2023-05-25T02:03:19;96280.19;;;11.50;77.02
57594;BME280;43423;46.510;6.686;2023-05-25T02:05:48;96282.94;;;11.50;77.25
57594;BME280;43423;46.510;6.686;2023-05-25T02:08:14;96280.44;;;11.52;77.05
57594;BME280;43423;46.510;6.686;2023-05-25T02:10:56;96283.91;;;11.46;77.39
57594;BME280;43423;46.510;6.686;2023-05-25T02:13:25;96275.06;;;11.37;77.82
57594;BME280;43423;46.510;6.686;2023-05-25T02:15:53;96270.03;;;11.35;77.48
57594;BME280;43423;46.510;6.686;2023-05-25T02:18:21;96274.84;;;11.40;77.70
57594;BME280;43423;46.510;6.686;2023-05-25T02:20:51;96268.34;;;11.38;77.61
57594;BME280;43423;46.510;6.686;2023-05-25T02:23:16;96269.09;;;11.38;77.64
57594;BME280;43423;46.510;6.686;2023-05-25T02:25:46;96263.84;;;11.40;77.57
57594;BME280;43423;46.510;6.686;2023-05-25T02:28:11;96259.84;;;11.41;76.87
57594;BME280;43423;46.510;6.686;2023-05-25T02:30:37;96261.78;;;11.35;77.59
57594;BME280;43423;46.510;6.686;2023-05-25T02:33:11;96255.22;;;11.27;77.51
57594;BME280;43423;46.510;6.686;2023-05-25T02:35:38;96258.50;;;11.31;77.62
57594;BME280;43423;46.510;6.686;2023-05-25T02:38:03;96255.22;;;11.27;77.54
57594;BME280;43423;46.510;6.686;2023-05-25T02:40:29;96271.84;;;11.38;76.85
57594;BME280;43423;46.510;6.686;2023-05-25T02:42:58;96256.06;;;11.39;77.21
57594;BME280;43423;46.510;6.686;2023-05-25T02:45:23;96266.59;;;11.40;76.85
57594;BME280;43423;46.510;6.686;2023-05-25T02:47:52;96270.84;;;11.41;77.23
57594;BME280;43423;46.510;6.686;2023-05-25T02:50:17;96256.06;;;11.39;76.99
57594;BME280;43423;46.510;6.686;2023-05-25T02:52:48;96269.53;;;11.31;76.73
57594;BME280;43423;46.510;6.686;2023-05-25T02:55:14;96259.22;;;11.26;77.35
57594;BME280;43423;46.510;6.686;2023-05-25T02:57:45;96258.69;;;11.22;77.14
57594;BME280;43423;46.510;6.686;2023-05-25T03:00:11;96256.72;;;11.28;77.33
57594;BME280;43423;46.510;6.686;2023-05-25T03:02:45;96263.47;;;11.27;77.42
57594;BME280;43423;46.510;6.686;2023-05-25T03:05:14;96269.22;;;11.29;77.37
57594;BME280;43423;46.510;6.686;2023-05-25T03:07:42;96270.47;;;11.28;77.13
57594;BME280;43423;46.510;6.686;2023-05-25T03:10:10;96277.53;;;11.35;77.11
57594;BME280;43423;46.510;6.686;2023-05-25T03:12:35;96270.84;;;11.41;76.72
57594;BME280;43423;46.510;6.686;2023-05-25T03:15:01;96275.81;;;11.37;76.53
57594;BME280;43423;46.510;6.686;2023-05-25T03:17:26;96283.78;;;11.30;76.53
57594;BME280;43423;46.510;6.686;2023-05-25T03:19:55;96283.28;;;11.31;76.35
57594;BME280;43423;46.510;6.686;2023-05-25T03:22:20;96290.81;;;11.36;76.38
57594;BME280;43423;46.510;6.686;2023-05-25T03:24:49;96291.25;;;11.29;77.12
57594;BME280;43423;46.510;6.686;2023-05-25T03:27:17;96298.81;;;11.34;76.84
57594;BME280;43423;46.510;6.686;2023-05-25T03:29:43;96287.31;;;11.36;76.60
57594;BME280;43423;46.510;6.686;2023-05-25T03:32:12;96289.88;;;11.45;76.38
57594;BME280;43423;46.510;6.686;2023-05-25T03:34:40;96287.09;;;11.39;75.92
57594;BME280;43423;46.510;6.686;2023-05-25T03:37:06;96289.84;;;11.39;76.54
57594;BME280;43423;46.510;6.686;2023-05-25T03:39:31;96282.41;;;11.45;76.31
57594;BME280;43423;46.510;6.686;2023-05-25T03:41:57;96292.44;;;11.49;76.19
57594;BME280;43423;46.510;6.686;2023-05-25T03:44:23;96295.25;;;11.54;75.94
57594;BME280;43423;46.510;6.686;2023-05-25T03:46:51;96293.44;;;11.45;75.55
57594;BME280;43423;46.510;6.686;2023-05-25T03:49:17;96289.94;;;11.51;75.75
57594;BME280;43423;46.510;6.686;2023-05-25T03:51:43;96293.50;;;11.57;75.62
57594;BME280;43423;46.510;6.686;2023-05-25T03:54:09;96286.19;;;11.48;75.84
57594;BME280;43423;46.510;6.686;2023-05-25T03:56:34;96292.63;;;11.45;75.38
57594;BME280;43423;46.510;6.686;2023-05-25T03:59:06;96294.19;;;11.46;75.19
57594;BME280;43423;46.510;6.686;2023-05-25T04:01:31;96302.72;;;11.22;75.96
57594;BME280;43423;46.510;6.686;2023-05-25T04:03:57;96303.16;;;11.15;76.40
57594;BME280;43423;46.510;6.686;2023-05-25T04:06:23;96313.75;;;11.28;76.44
57594;BME280;43423;46.510;6.686;2023-05-25T04:08:50;96312.94;;;11.22;76.26
57594;BME280;43423;46.510;6.686;2023-05-25T04:11:33;96310.97;;;11.22;76.73
57594;BME280;43423;46.510;6.686;2023-05-25T04:14:01;96311.13;;;11.13;76.60
57594;BME280;43423;46.510;6.686;2023-05-25T04:16:28;96312.66;;;11.14;76.58
57594;BME280;43423;46.510;6.686;2023-05-25T04:18:54;96320.13;;;11.13;76.72
57594;BME280;43423;46.510;6.686;2023-05-25T04:21:20;96314.69;;;11.19;76.63
57594;BME280;43423;46.510;6.686;2023-05-25T04:23:46;96315.94;;;11.18;76.22
57594;BME280;43423;46.510;6.686;2023-05-25T04:26:14;96320.31;;;11.30;76.12
57594;BME280;43423;46.510;6.686;2023-05-25T04:28:44;96321.69;;;11.20;76.53
57594;BME280;43423;46.510;6.686;2023-05-25T04:31:19;96320.94;;;11.19;76.45
57594;BME280;43423;46.510;6.686;2023-05-25T04:33:47;96324.03;;;11.27;76.23
57594;BME280;43423;46.510;6.686;2023-05-25T04:36:13;96335.53;;;11.26;76.28
57594;BME280;43423;46.510;6.686;2023-05-25T04:38:39;96335.03;;;11.27;75.89
57594;BME280;43423;46.510;6.686;2023-05-25T04:41:06;96330.03;;;11.26;76.07
57594;BME280;43423;46.510;6.686;2023-05-25T04:43:32;96339.28;;;11.28;75.79
57594;BME280;43423;46.510;6.686;2023-05-25T04:45:58;96344.97;;;11.19;76.45
57594;BME280;43423;46.510;6.686;2023-05-25T04:48:28;96343.94;;;11.16;76.52
57594;BME280;43423;46.510;6.686;2023-05-25T04:50:56;96344.47;;;11.21;76.31
57594;BME280;43423;46.510;6.686;2023-05-25T04:53:31;96338.75;;;11.24;76.33
57594;BME280;43423;46.510;6.686;2023-05-25T04:55:56;96347.84;;;11.30;75.37
57594;BME280;43423;46.510;6.686;2023-05-25T04:58:23;96348.31;;;11.29;75.55
57594;BME280;43423;46.510;6.686;2023-05-25T05:00:54;96353.22;;;11.19;75.42
57594;BME280;43423;46.510;6.686;2023-05-25T05:03:20;96365.63;;;11.09;76.08
57594;BME280;43423;46.510;6.686;2023-05-25T05:05:46;96373.19;;;11.14;75.51
57594;BME280;43423;46.510;6.686;2023-05-25T05:08:11;96383.50;;;11.19;75.58
57594;BME280;43423;46.510;6.686;2023-05-25T05:10:39;96381.16;;;11.12;75.99
57594;BME280;43423;46.510;6.686;2023-05-25T05:13:05;96396.16;;;11.11;75.30
57594;BME280;43423;46.510;6.686;2023-05-25T05:15:33;96398.91;;;11.11;75.90
57594;BME280;43423;46.510;6.686;2023-05-25T05:17:59;96403.38;;;11.08;75.42
57594;BME280;43423;46.510;6.686;2023-05-25T05:20:27;96409.75;;;11.20;76.02
57594;BME280;43423;46.510;6.686;2023-05-25T05:22:56;96405.56;;;11.25;75.28
57594;BME280;43423;46.510;6.686;2023-05-25T05:25:24;96415.91;;;11.30;74.51
57594;BME280;43423;46.510;6.686;2023-05-25T05:27:50;96428.22;;;11.14;76.51
57594;BME280;43423;46.510;6.686;2023-05-25T05:30:15;96423.00;;;10.96;76.84
57594;BME280;43423;46.510;6.686;2023-05-25T05:32:41;96429.31;;;11.02;78.13
57594;BME280;43423;46.510;6.686;2023-05-25T05:35:06;96441.69;;;11.12;78.93
57594;BME280;43423;46.510;6.686;2023-05-25T05:37:39;96438.34;;;11.02;80.11
57594;BME280;43423;46.510;6.686;2023-05-25T05:40:06;96446.84;;;11.04;80.78
57594;BME280;43423;46.510;6.686;2023-05-25T05:42:35;96439.22;;;10.94;81.26
57594;BME280;43423;46.510;6.686;2023-05-25T05:45:00;96443.91;;;10.87;81.03
57594;BME280;43423;46.510;6.686;2023-05-25T05:47:29;96442.16;;;10.90;82.93
57594;BME280;43423;46.510;6.686;2023-05-25T05:49:58;96445.69;;;10.90;82.56
57594;BME280;43423;46.510;6.686;2023-05-25T05:52:55;96446.50;;;10.97;83.92
57594;BME280;43423;46.510;6.686;2023-05-25T05:55:20;96454.22;;;10.93;85.87
57594;BME280;43423;46.510;6.686;2023-05-25T05:58:01;96443.41;;;10.69;86.38
57594;BME280;43423;46.510;6.686;2023-05-25T06:00:30;96458.31;;;10.62;87.20
57594;BME280;43423;46.510;6.686;2023-05-25T06:02:58;96457.63;;;10.67;88.56
57594;BME280;43423;46.510;6.686;2023-05-25T06:05:24;96458.31;;;10.62;87.82
57594;BME280;43423;46.510;6.686;2023-05-25T06:07:50;96459.28;;;10.59;89.05
57594;BME280;43423;46.510;6.686;2023-05-25T06:10:21;96467.53;;;10.79;87.80
57594;BME280;43423;46.510;6.686;2023-05-25T06:12:47;96476.16;;;10.87;88.92
57594;BME280;43423;46.510;6.686;2023-05-25T06:15:13;96475.88;;;11.05;88.28
57594;BME280;43423;46.510;6.686;2023-05-25T06:17:38;96475.41;;;11.07;87.42
57594;BME280;43423;46.510;6.686;2023-05-25T06:20:07;96483.13;;;11.23;86.37
57594;BME280;43423;46.510;6.686;2023-05-25T06:22:33;96490.16;;;10.89;88.33
57594;BME280;43423;46.510;6.686;2023-05-25T06:25:08;96485.91;;;10.88;89.74
57594;BME280;43423;46.510;6.686;2023-05-25T06:27:37;96488.53;;;10.97;89.24
57594;BME280;43423;46.510;6.686;2023-05-25T06:30:12;96496.88;;;11.03;87.90
57594;BME280;43423;46.510;6.686;2023-05-25T06:32:38;96497.44;;;11.07;88.96
57594;BME280;43423;46.510;6.686;2023-05-25T06:35:03;96492.53;;;11.16;89.14
57594;BME280;43423;46.510;6.686;2023-05-25T06:37:32;96489.78;;;11.16;90.02
57594;BME280;43423;46.510;6.686;2023-05-25T06:40:03;96493.56;;;11.19;88.30
57594;BME280;43423;46.510;6.686;2023-05-25T06:42:29;96495.91;;;11.06;89.94
57594;BME280;43423;46.510;6.686;2023-05-25T06:45:00;96494.28;;;11.14;91.16
57594;BME280;43423;46.510;6.686;2023-05-25T06:47:26;96494.06;;;11.17;89.52
57594;BME280;43423;46.510;6.686;2023-05-25T06:49:57;96494.75;;;11.33;90.79
57594;BME280;43423;46.510;6.686;2023-05-25T06:52:23;96497.91;;;11.46;90.92
57594;BME280;43423;46.510;6.686;2023-05-25T06:54:51;96496.94;;;11.49;89.26
57594;BME280;43423;46.510;6.686;2023-05-25T06:57:17;96492.84;;;11.65;90.32
57594;BME280;43423;46.510;6.686;2023-05-25T06:59:42;96485.56;;;11.82;91.92
57594;BME280;43423;46.510;6.686;2023-05-25T07:02:08;96495.16;;;11.92;90.01
57594;BME280;43423;46.510;6.686;2023-05-25T07:04:36;96503.16;;;12.16;90.84
57594;BME280;43423;46.510;6.686;2023-05-25T07:07:02;96502.59;;;12.38;92.42
57594;BME280;43423;46.510;6.686;2023-05-25T07:09:28;96507.66;;;12.45;88.54
57594;BME280;43423;46.510;6.686;2023-05-25T07:11:54;96515.31;;;12.62;90.00
57594;BME280;43423;46.510;6.686;2023-05-25T07:14:19;96508.88;;;12.76;86.79
57594;BME280;43423;46.510;6.686;2023-05-25T07:16:45;96510.75;;;12.90;84.83
57594;BME280;43423;46.510;6.686;2023-05-25T07:19:14;96509.44;;;13.23;86.83
57594;BME280;43423;46.510;6.686;2023-05-25T07:21:39;96520.03;;;13.30;81.81
57594;BME280;43423;46.510;6.686;2023-05-25T07:24:05;96513.56;;;13.50;82.92
57594;BME280;43423;46.510;6.686;2023-05-25T07:26:31;96521.16;;;13.60;78.73
57594;BME280;43423;46.510;6.686;2023-05-25T07:29:00;96531.47;;;13.71;81.78
57594;BME280;43423;46.510;6.686;2023-05-25T07:31:26;96528.75;;;13.82;79.16
57594;BME280;43423;46.510;6.686;2023-05-25T07:33:53;96532.34;;;14.11;80.08
57594;BME280;43423;46.510;6.686;2023-05-25T07:36:22;96543.44;;;14.39;82.14
57594;BME280;43423;46.510;6.686;2023-05-25T07:38:49;96546.22;;;14.39;75.61
57594;BME280;43423;46.510;6.686;2023-05-25T07:41:14;96540.94;;;14.52;79.76
57594;BME280;43423;46.510;6.686;2023-05-25T07:43:40;96551.28;;;14.74;76.42
57594;BME280;43423;46.510;6.686;2023-05-25T07:46:05;96556.03;;;14.90;77.32
57594;BME280;43423;46.510;6.686;2023-05-25T07:48:31;96555.03;;;14.88;71.98
57594;BME280;43423;46.510;6.686;2023-05-25T07:50:57;96564.84;;;15.00;73.57
57594;BME280;43423;46.510;6.686;2023-05-25T07:53:23;96562.81;;;15.17;71.96
57594;BME280;43423;46.510;6.686;2023-05-25T07:55:48;96558.06;;;15.01;71.56
57594;BME280;43423;46.510;6.686;2023-05-25T07:58:17;96564.03;;;15.22;74.50
57594;BME280;43423;46.510;6.686;2023-05-25T08:01:13;96573.59;;;15.38;71.19
57594;BME280;43423;46.510;6.686;2023-05-25T08:03:41;96569.75;;;15.52;70.31
57594;BME280;43423;46.510;6.686;2023-05-25T08:06:06;96567.69;;;15.80;73.28
57594;BME280;43423;46.510;6.686;2023-05-25T08:08:32;96560.94;;;15.53;69.30
57594;BME280;43423;46.510;6.686;2023-05-25T08:10:57;96561.28;;;15.16;71.95
57594;BME280;43423;46.510;6.686;2023-05-25T08:13:26;96562.09;;;14.94;73.59
57594;BME280;43423;46.510;6.686;2023-05-25T08:15:51;96563.84;;;14.80;77.25
57594;BME280;43423;46.510;6.686;2023-05-25T08:18:17;96568.88;;;14.99;75.73
57594;BME280;43423;46.510;6.686;2023-05-25T08:20:46;96567.38;;;14.59;75.55
57594;BME280;43423;46.510;6.686;2023-05-25T08:23:14;96575.91;;;15.00;77.43
57594;BME280;43423;46.510;6.686;2023-05-25T08:25:40;96573.16;;;14.61;74.09
57594;BME280;43423;46.510;6.686;2023-05-25T08:28:05;96588.53;;;14.62;74.89
57594;BME280;43423;46.510;6.686;2023-05-25T08:30:43;96588.00;;;14.63;74.08
57594;BME280;43423;46.510;6.686;2023-05-25T08:33:09;96584.75;;;14.70;73.93
57594;BME280;43423;46.510;6.686;2023-05-25T08:35:34;96584.47;;;14.91;73.65
57594;BME280;43423;46.510;6.686;2023-05-25T08:38:06;96588.50;;;15.12;73.80
57594;BME280;43423;46.510;6.686;2023-05-25T08:40:32;96586.47;;;15.07;73.03
57594;BME280;43423;46.510;6.686;2023-05-25T08:43:04;96601.59;;;14.78;71.90
57594;BME280;43423;46.510;6.686;2023-05-25T08:45:29;96604.88;;;14.54;71.45
57594;BME280;43423;46.510;6.686;2023-05-25T08:47:57;96602.03;;;14.32;72.60
57594;BME280;43423;46.510;6.686;2023-05-25T08:50:25;96603.72;;;14.12;73.65
57594;BME280;43423;46.510;6.686;2023-05-25T08:52:55;96599.97;;;14.15;74.90
57594;BME280;43423;46.510;6.686;2023-05-25T08:55:21;96604.47;;;14.13;74.93
57594;BME280;43423;46.510;6.686;2023-05-25T08:58:03;96605.44;;;13.93;72.97
57594;BME280;43423;46.510;6.686;2023-05-25T09:00:34;96613.56;;;14.24;72.93
57594;BME280;43423;46.510;6.686;2023-05-25T09:03:12;96617.59;;;14.35;73.51
57594;BME280;43423;46.510;6.686;2023-05-25T09:05:40;96618.69;;;14.54;72.93
57594;BME280;43423;46.510;6.686;2023-05-25T09:08:07;96623.25;;;14.79;72.47
57594;BME280;43423;46.510;6.686;2023-05-25T09:10:34;96626.00;;;14.74;70.22
57594;BME280;43423;46.510;6.686;2023-05-25T09:13:03;96629.09;;;14.11;70.74
57594;BME280;43423;46.510;6.686;2023-05-25T09:15:37;96634.28;;;14.46;70.52
57594;BME280;43423;46.510;6.686;2023-05-25T09:18:03;96630.25;;;14.47;71.62
57594;BME280;43423;46.510;6.686;2023-05-25T09:20:34;96630.19;;;14.41;71.10
57594;BME280;43423;46.510;6.686;2023-05-25T09:23:07;96638.56;;;14.47;70.47
57594;BME280;43423;46.510;6.686;2023-05-25T09:25:36;96629.53;;;14.74;69.71
57594;BME280;43423;46.510;6.686;2023-05-25T09:28:02;96638.81;;;14.60;70.70
57594;BME280;43423;46.510;6.686;2023-05-25T09:30:37;96644.63;;;14.96;69.36
57594;BME280;43423;46.510;6.686;2023-05-25T09:33:13;96642.09;;;15.15;72.17
57594;BME280;43423;46.510;6.686;2023-05-25T09:35:45;96640.84;;;15.04;71.35
57594;BME280;43423;46.510;6.686;2023-05-25T09:38:14;96623.72;;;15.00;71.41
57594;BME280;43423;46.510;6.686;2023-05-25T09:40:43;96620.72;;;15.04;69.95
57594;BME280;43423;46.510;6.686;2023-05-25T09:43:10;96629.78;;;15.10;70.46
57594;BME280;43423;46.510;6.686;2023-05-25T09:45:36;96632.56;;;15.04;72.22
57594;BME280;43423;46.510;6.686;2023-05-25T09:48:04;96626.53;;;14.95;71.65
57594;BME280;43423;46.510;6.686;2023-05-25T09:50:35;96639.59;;;14.94;69.91
57594;BME280;43423;46.510;6.686;2023-05-25T09:53:11;96642.38;;;15.17;71.03
57594;BME280;43423;46.510;6.686;2023-05-25T09:55:37;96645.63;;;15.43;69.15
57594;BME280;43423;46.510;6.686;2023-05-25T09:58:03;96637.06;;;15.41;70.57
57594;BME280;43423;46.510;6.686;2023-05-25T10:00:32;96648.16;;;15.35;69.89
57594;BME280;43423;46.510;6.686;2023-05-25T10:03:00;96645.38;;;15.35;69.64
57594;BME280;43423;46.510;6.686;2023-05-25T10:05:26;96648.16;;;15.02;70.24
57594;BME280;43423;46.510;6.686;2023-05-25T10:07:52;96659.25;;;15.02;71.34
57594;BME280;43423;46.510;6.686;2023-05-25T10:10:22;96655.44;;;15.50;70.83
57594;BME280;43423;46.510;6.686;2023-05-25T10:12:51;96651.41;;;15.40;71.31
57594;BME280;43423;46.510;6.686;2023-05-25T10:15:17;96652.19;;;15.34;68.29
57594;BME280;43423;46.510;6.686;2023-05-25T10:17:52;96650.19;;;15.01;71.14
57594;BME280;43423;46.510;6.686;2023-05-25T10:20:20;96661.75;;;14.94;70.26
57594;BME280;43423;46.510;6.686;2023-05-25T10:23:15;96664.53;;;14.89;72.43
57594;BME280;43423;46.510;6.686;2023-05-25T10:25:46;96652.44;;;14.92;70.90
57594;BME280;43423;46.510;6.686;2023-05-25T10:28:26;96669.06;;;15.03;69.61
57594;BME280;43423;46.510;6.686;2023-05-25T10:30:52;96660.75;;;15.03;68.65
57594;BME280;43423;46.510;6.686;2023-05-25T10:33:23;96665.03;;;15.15;71.22
57594;BME280;43423;46.510;6.686;2023-05-25T10:35:53;96664.47;;;15.56;70.24
57594;BME280;43423;46.510;6.686;2023-05-25T10:38:24;96676.34;;;15.40;70.26
57594;BME280;43423;46.510;6.686;2023-05-25T10:40:54;96682.13;;;15.30;67.56
57594;BME280;43423;46.510;6.686;2023-05-25T10:43:24;96677.56;;;15.83;67.99
57594;BME280;43423;46.510;6.686;2023-05-25T10:45:53;96671.31;;;15.66;67.81
57594;BME280;43423;46.510;6.686;2023-05-25T10:48:19;96669.28;;;15.50;67.27
57594;BME280;43423;46.510;6.686;2023-05-25T10:50:51;96666.00;;;15.74;67.68
57594;BME280;43423;46.510;6.686;2023-05-25T10:53:20;96664.50;;;15.67;68.05
57594;BME280;43423;46.510;6.686;2023-05-25T10:58:18;96682.22;;;16.22;65.93
57594;BME280;43423;46.510;6.686;2023-05-25T11:01:06;96689.13;;;15.87;65.64
57594;BME280;43423;46.510;6.686;2023-05-25T11:03:53;96697.97;;;15.86;66.61
57594;BME280;43423;46.510;6.686;2023-05-25T11:09:09;96692.16;;;15.89;65.80
57594;BME280;43423;46.510;6.686;2023-05-25T11:17:12;96705.03;;;16.51;66.45
57594;BME280;43423;46.510;6.686;2023-05-25T11:19:53;96705.53;;;16.55;66.62
57594;BME280;43423;46.510;6.686;2023-05-25T11:22:32;96706.94;;;16.78;67.11
57594;BME280;43423;46.510;6.686;2023-05-25T11:25:01;96709.91;;;16.91;64.58
57594;BME280;43423;46.510;6.686;2023-05-25T11:27:30;96708.47;;;16.73;63.10
57594;BME280;43423;46.510;6.686;2023-05-25T11:29:58;96714.00;;;16.79;65.97
57594;BME280;43423;46.510;6.686;2023-05-25T11:32:26;96711.66;;;16.89;66.40
57594;BME280;43423;46.510;6.686;2023-05-25T11:34:52;96712.56;;;17.08;65.87
57594;BME280;43423;46.510;6.686;2023-05-25T11:37:20;96709.78;;;17.08;64.63
57594;BME280;43423;46.510;6.686;2023-05-25T11:39:49;96709.03;;;17.08;64.19
57594;BME280;43423;46.510;6.686;2023-05-25T11:42:22;96702.03;;;17.31;63.53
57594;BME280;43423;46.510;6.686;2023-05-25T11:45:15;96711.16;;;17.26;65.43
57594;BME280;43423;46.510;6.686;2023-05-25T11:47:47;96715.75;;;17.23;64.89
57594;BME280;43423;46.510;6.686;2023-05-25T11:50:15;96705.13;;;16.86;63.19
57594;BME280;43423;46.510;6.686;2023-05-25T11:52:41;96709.13;;;16.44;65.71
57594;BME280;43423;46.510;6.686;2023-05-25T11:55:14;96711.69;;;16.36;66.04
57594;BME280;43423;46.510;6.686;2023-05-25T11:57:40;96712.66;;;16.39;65.66
57594;BME280;43423;46.510;6.686;2023-05-25T12:00:07;96709.16;;;16.27;65.57
57594;BME280;43423;46.510;6.686;2023-05-25T12:02:42;96713.34;;;16.56;67.26
57594;BME280;43423;46.510;6.686;2023-05-25T12:05:11;96722.53;;;16.92;64.74
57594;BME280;43423;46.510;6.686;2023-05-25T12:07:56;96724.88;;;16.77;65.38
57594;BME280;43423;46.510;6.686;2023-05-25T12:10:22;96722.09;;;16.77;65.48
57594;BME280;43423;46.510;6.686;2023-05-25T12:12:49;96711.13;;;16.96;65.72
57594;BME280;43423;46.510;6.686;2023-05-25T12:15:19;96715.41;;;17.33;64.09
57594;BME280;43423;46.510;6.686;2023-05-25T12:17:49;96713.66;;;17.59;64.03
57594;BME280;43423;46.510;6.686;2023-05-25T12:20:16;96704.53;;;17.65;64.55
57594;BME280;43423;46.510;6.686;2023-05-25T12:22:45;96711.53;;;18.01;62.84
57594;BME280;43423;46.510;6.686;2023-05-25T12:25:19;96719.50;;;18.10;63.87
57594;BME280;43423;46.510;6.686;2023-05-25T12:27:45;96716.59;;;17.43;65.80
57594;BME280;43423;46.510;6.686;2023-05-25T12:30:11;96723.38;;;17.12;67.16
57594;BME280;43423;46.510;6.686;2023-05-25T12:32:59;96717.00;;;17.22;66.51
57594;BME280;43423;46.510;6.686;2023-05-25T12:35:28;96710.78;;;17.41;66.20
57594;BME280;43423;46.510;6.686;2023-05-25T12:38:10;96717.06;;;17.77;67.74
57594;BME280;43423;46.510;6.686;2023-05-25T12:40:36;96717.31;;;17.79;66.68
57594;BME280;43423;46.510;6.686;2023-05-25T12:43:23;96718.63;;;17.42;67.85
57594;BME280;43423;46.510;6.686;2023-05-25T12:45:48;96709.56;;;17.36;67.75
57594;BME280;43423;46.510;6.686;2023-05-25T12:48:14;96708.97;;;17.49;67.45
57594;BME280;43423;46.510;6.686;2023-05-25T12:50:56;96706.50;;;17.70;67.57
57594;BME280;43423;46.510;6.686;2023-05-25T12:53:22;96714.75;;;18.05;67.54
57594;BME280;43423;46.510;6.686;2023-05-25T12:55:48;96706.63;;;17.83;68.26
57594;BME280;43423;46.510;6.686;2023-05-25T12:58:26;96718.19;;;17.33;67.89
57594;BME280;43423;46.510;6.686;2023-05-25T13:00:52;96711.31;;;17.03;66.30
57594;BME280;43423;46.510;6.686;2023-05-25T13:03:20;96720.38;;;17.10;70.01
57594;BME280;43423;46.510;6.686;2023-05-25T13:05:46;96717.84;;;17.12;65.49
57594;BME280;43423;46.510;6.686;2023-05-25T13:08:12;96725.91;;;17.45;65.44
57594;BME280;43423;46.510;6.686;2023-05-25T13:10:41;96721.19;;;17.70;64.78
57594;BME280;43423;46.510;6.686;2023-05-25T13:13:06;96714.91;;;16.98;64.77
57594;BME280;43423;46.510;6.686;2023-05-25T13:15:35;96709.72;;;17.14;64.90
57594;BME280;43423;46.510;6.686;2023-05-25T13:18:00;96721.06;;;17.51;67.36
57594;BME280;43423;46.510;6.686;2023-05-25T13:20:28;96716.50;;;17.54;63.95